sensor_id;sensor_type;location;lat;lon;timestamp;pressure;altitude;pressure_sealevel;temperature;humidity
48267;BME280;34088;52.232;5.196;2023-11-19T00:00:46;100802.66;;;13.25;100.00
48267;BME280;34088;52.232;5.196;2023-11-19T00:03:11;100796.59;;;13.24;100.00
48267;BME280;34088;52.232;5.196;2023-11-19T00:05:38;100807.00;;;13.24;100.00
48267;BME280;34088;52.232;5.196;2023-11-19T00:08:03;100788.03;;;13.22;100.00
48267;BME280;34088;52.232;5.196;2023-11-19T00:10:29;100795.69;;;13.25;100.00
48267;BME280;34088;52.232;5.196;2023-11-19T00:12:55;100804.00;;;13.33;100.00
48267;BME280;34088;52.232;5.196;2023-11-19T00:15:22;100812.06;;;13.27;100.00
48267;BME280;34088;52.232;5.196;2023-11-19T00:17:49;100812.13;;;13.26;100.00
48267;BME280;34088;52.232;5.196;2023-11-19T01:07:04;100781.50;;;13.14;100.00
48267;BME280;34088;52.232;5.196;2023-11-19T01:09:30;100770.53;;;13.07;100.00
48267;BME280;34088;52.232;5.196;2023-11-19T01:11:58;100767.94;;;13.07;100.00
48267;BME280;34088;52.232;5.196;2023-11-19T01:14:24;100765.28;;;13.09;100.00
48267;BME280;34088;52.232;5.196;2023-11-19T01:16:50;100761.69;;;13.11;100.00
48267;BME280;34088;52.232;5.196;2023-11-19T01:19:15;100754.88;;;13.09;100.00
48267;BME280;34088;52.232;5.196;2023-11-19T01:21:40;100740.97;;;13.10;100.00
48267;BME280;34088;52.232;5.196;2023-11-19T01:24:06;100739.28;;;13.09;100.00
48267;BME280;34088;52.232;5.196;2023-11-19T01:26:34;100728.31;;;13.02;100.00
48267;BME280;34088;52.232;5.196;2023-11-19T01:28:59;100727.34;;;13.05;100.00
48267;BME280;34088;52.232;5.196;2023-11-19T01:31:25;100743.91;;;13.02;100.00
48267;BME280;34088;52.232;5.196;2023-11-19T01:33:50;100745.47;;;13.06;100.00
48267;BME280;34088;52.232;5.196;2023-11-19T01:36:15;100752.56;;;13.03;100.00
48267;BME280;34088;52.232;5.196;2023-11-19T01:38:40;100744.06;;;12.99;100.00
48267;BME280;34088;52.232;5.196;2023-11-19T01:41:06;100740.84;;;12.93;100.00
48267;BME280;34088;52.232;5.196;2023-11-19T01:43:34;100746.84;;;12.95;100.00
48267;BME280;34088;52.232;5.196;2023-11-19T01:46:01;100749.44;;;12.95;100.00
48267;BME280;34088;52.232;5.196;2023-11-19T01:48:27;100752.22;;;12.90;100.00
48267;BME280;34088;52.232;5.196;2023-11-19T01:50:53;100754.72;;;12.93;100.00
48267;BME280;34088;52.232;5.196;2023-11-19T01:53:19;100754.00;;;12.90;100.00
48267;BME280;34088;52.232;5.196;2023-11-19T01:55:45;100761.88;;;12.88;100.00
48267;BME280;34088;52.232;5.196;2023-11-19T01:58:11;100754.50;;;12.79;100.00
48267;BME280;34088;52.232;5.196;2023-11-19T02:00:37;100768.09;;;12.84;100.00
48267;BME280;34088;52.232;5.196;2023-11-19T02:03:05;100761.44;;;12.79;100.00
48267;BME280;34088;52.232;5.196;2023-11-19T02:05:33;100750.19;;;12.78;100.00
48267;BME280;34088;52.232;5.196;2023-11-19T02:07:58;100749.53;;;12.73;100.00
48267;BME280;34088;52.232;5.196;2023-11-19T02:10:24;100746.34;;;12.68;100.00
48267;BME280;34088;52.232;5.196;2023-11-19T02:12:50;100741.19;;;12.67;100.00
48267;BME280;34088;52.232;5.196;2023-11-19T02:15:15;100748.34;;;12.62;100.00
48267;BME280;34088;52.232;5.196;2023-11-19T02:17:43;100757.00;;;12.62;100.00
48267;BME280;34088;52.232;5.196;2023-11-19T02:20:09;100758.75;;;12.62;100.00
48267;BME280;34088;52.232;5.196;2023-11-19T02:22:36;100762.59;;;12.53;100.00
48267;BME280;34088;52.232;5.196;2023-11-19T02:25:04;100767.72;;;12.55;100.00
48267;BME280;34088;52.232;5.196;2023-11-19T02:30:16;100769.41;;;12.56;100.00
48267;BME280;34088;52.232;5.196;2023-11-19T02:32:42;100767.97;;;12.49;100.00
48267;BME280;34088;52.232;5.196;2023-11-19T02:35:07;100760.38;;;12.44;100.00
48267;BME280;34088;52.232;5.196;2023-11-19T02:37:33;100766.31;;;12.48;100.00
48267;BME280;34088;52.232;5.196;2023-11-19T02:39:58;100754.47;;;12.41;100.00
48267;BME280;34088;52.232;5.196;2023-11-19T02:42:34;100733.97;;;12.35;100.00
48267;BME280;34088;52.232;5.196;2023-11-19T02:45:00;100749.47;;;12.36;100.00
48267;BME280;34088;52.232;5.196;2023-11-19T02:47:26;100748.66;;;12.36;100.00
48267;BME280;34088;52.232;5.196;2023-11-19T02:49:53;100740.28;;;12.29;100.00
48267;BME280;34088;52.232;5.196;2023-11-19T02:52:18;100750.41;;;12.35;100.00
48267;BME280;34088;52.232;5.196;2023-11-19T02:54:43;100747.16;;;12.30;100.00
48267;BME280;34088;52.232;5.196;2023-11-19T02:57:09;100759.22;;;12.31;100.00
48267;BME280;34088;52.232;5.196;2023-11-19T02:59:39;100755.00;;;12.29;100.00
48267;BME280;34088;52.232;5.196;2023-11-19T03:02:06;100740.41;;;12.26;100.00
48267;BME280;34088;52.232;5.196;2023-11-19T03:04:32;100758.56;;;12.26;100.00
48267;BME280;34088;52.232;5.196;2023-11-19T03:06:58;100750.88;;;12.25;100.00
48267;BME280;34088;52.232;5.196;2023-11-19T03:09:23;100748.59;;;12.17;100.00
48267;BME280;34088;52.232;5.196;2023-11-19T03:11:49;100753.97;;;12.13;100.00
48267;BME280;34088;52.232;5.196;2023-11-19T03:14:14;100756.63;;;12.11;100.00
48267;BME280;34088;52.232;5.196;2023-11-19T03:16:40;100749.75;;;12.10;100.00
48267;BME280;34088;52.232;5.196;2023-11-19T03:19:05;100753.25;;;12.09;100.00
48267;BME280;34088;52.232;5.196;2023-11-19T03:21:30;100743.00;;;12.06;100.00
48267;BME280;34088;52.232;5.196;2023-11-19T03:23:59;100750.75;;;12.08;100.00
48267;BME280;34088;52.232;5.196;2023-11-19T03:26:25;100755.22;;;12.04;100.00
48267;BME280;34088;52.232;5.196;2023-11-19T03:28:51;100742.25;;;12.04;100.00
48267;BME280;34088;52.232;5.196;2023-11-19T03:31:16;100737.94;;;12.03;100.00
48267;BME280;34088;52.232;5.196;2023-11-19T03:33:42;100741.53;;;12.01;100.00
48267;BME280;34088;52.232;5.196;2023-11-19T03:36:07;100746.81;;;11.98;100.00
48267;BME280;34088;52.232;5.196;2023-11-19T03:38:34;100735.75;;;11.94;100.00
48267;BME280;34088;52.232;5.196;2023-11-19T03:40:59;100736.66;;;11.93;100.00
48267;BME280;34088;52.232;5.196;2023-11-19T03:43:24;100728.94;;;11.92;100.00
48267;BME280;34088;52.232;5.196;2023-11-19T03:45:49;100724.72;;;11.89;100.00
48267;BME280;34088;52.232;5.196;2023-11-19T03:48:15;100736.91;;;11.87;100.00
48267;BME280;34088;52.232;5.196;2023-11-19T03:50:41;100749.88;;;11.87;100.00
48267;BME280;34088;52.232;5.196;2023-11-19T03:53:06;100752.38;;;11.89;100.00
48267;BME280;34088;52.232;5.196;2023-11-19T03:55:31;100756.84;;;11.85;100.00
48267;BME280;34088;52.232;5.196;2023-11-19T03:57:57;100756.19;;;11.80;100.00
48267;BME280;34088;52.232;5.196;2023-11-19T04:00:23;100763.34;;;11.75;100.00
48267;BME280;34088;52.232;5.196;2023-11-19T04:02:48;100755.63;;;11.74;100.00
48267;BME280;34088;52.232;5.196;2023-11-19T04:05:13;100758.69;;;11.83;100.00
48267;BME280;34088;52.232;5.196;2023-11-19T04:07:38;100749.28;;;11.81;100.00
48267;BME280;34088;52.232;5.196;2023-11-19T04:10:04;100755.63;;;11.74;100.00
48267;BME280;34088;52.232;5.196;2023-11-19T04:12:30;100758.28;;;11.72;100.00
48267;BME280;34088;52.232;5.196;2023-11-19T04:14:55;100752.31;;;11.70;100.00
48267;BME280;34088;52.232;5.196;2023-11-19T04:17:21;100762.84;;;11.66;100.00
48267;BME280;34088;52.232;5.196;2023-11-19T04:19:48;100761.16;;;11.65;100.00
48267;BME280;34088;52.232;5.196;2023-11-19T04:22:13;100771.38;;;11.69;100.00
48267;BME280;34088;52.232;5.196;2023-11-19T04:24:38;100760.09;;;11.70;100.00
48267;BME280;34088;52.232;5.196;2023-11-19T04:27:04;100770.56;;;11.67;100.00
48267;BME280;34088;52.232;5.196;2023-11-19T04:29:30;100768.03;;;11.66;100.00
48267;BME280;34088;52.232;5.196;2023-11-19T04:31:56;100762.94;;;11.64;100.00
48267;BME280;34088;52.232;5.196;2023-11-19T04:34:21;100754.50;;;11.58;100.00
48267;BME280;34088;52.232;5.196;2023-11-19T04:36:46;100763.84;;;11.63;100.00
48267;BME280;34088;52.232;5.196;2023-11-19T04:39:11;100763.09;;;11.60;100.00
48267;BME280;34088;52.232;5.196;2023-11-19T04:41:48;100760.59;;;11.58;100.00
48267;BME280;34088;52.232;5.196;2023-11-19T04:44:18;100774.47;;;11.56;100.00
48267;BME280;34088;52.232;5.196;2023-11-19T04:46:43;100763.19;;;11.58;100.00
48267;BME280;34088;52.232;5.196;2023-11-19T04:49:09;100764.06;;;11.57;100.00
48267;BME280;34088;52.232;5.196;2023-11-19T04:51:43;100753.16;;;11.48;100.00
48267;BME280;34088;52.232;5.196;2023-11-19T04:54:10;100754.56;;;11.56;100.00
48267;BME280;34088;52.232;5.196;2023-11-19T04:56:38;100756.38;;;11.54;100.00
48267;BME280;34088;52.232;5.196;2023-11-19T04:59:04;100757.09;;;11.58;100.00
48267;BME280;34088;52.232;5.196;2023-11-19T05:01:33;100752.81;;;11.57;100.00
48267;BME280;34088;52.232;5.196;2023-11-19T05:03:58;100762.13;;;11.62;100.00
48267;BME280;34088;52.232;5.196;2023-11-19T05:06:33;100765.44;;;11.66;100.00
48267;BME280;34088;52.232;5.196;2023-11-19T05:08:59;100765.53;;;11.64;100.00
48267;BME280;34088;52.232;5.196;2023-11-19T05:11:33;100760.34;;;11.64;100.00
48267;BME280;34088;52.232;5.196;2023-11-19T05:13:59;100758.00;;;11.58;100.00
48267;BME280;34088;52.232;5.196;2023-11-19T05:16:25;100770.81;;;11.61;100.00
48267;BME280;34088;52.232;5.196;2023-11-19T05:18:50;100769.13;;;11.60;100.00
48267;BME280;34088;52.232;5.196;2023-11-19T05:21:15;100766.59;;;11.59;100.00
48267;BME280;34088;52.232;5.196;2023-11-19T05:23:42;100764.94;;;11.56;100.00
48267;BME280;34088;52.232;5.196;2023-11-19T05:26:07;100772.72;;;11.56;99.79
48267;BME280;34088;52.232;5.196;2023-11-19T05:28:33;100766.13;;;11.48;100.00
48267;BME280;34088;52.232;5.196;2023-11-19T05:30:58;100774.78;;;11.48;100.00
48267;BME280;34088;52.232;5.196;2023-11-19T05:33:24;100763.78;;;11.42;99.73
48267;BME280;34088;52.232;5.196;2023-11-19T05:35:49;100774.88;;;11.45;99.64
48267;BME280;34088;52.232;5.196;2023-11-19T05:38:14;100754.47;;;11.38;99.16
48267;BME280;34088;52.232;5.196;2023-11-19T05:40:40;100767.28;;;11.41;99.73
48267;BME280;34088;52.232;5.196;2023-11-19T05:43:05;100762.25;;;11.38;98.83
48267;BME280;34088;52.232;5.196;2023-11-19T05:45:31;100780.38;;;11.38;98.62
48267;BME280;34088;52.232;5.196;2023-11-19T05:47:57;100761.63;;;11.31;98.50
48267;BME280;34088;52.232;5.196;2023-11-19T05:50:22;100782.84;;;11.41;98.28
48267;BME280;34088;52.232;5.196;2023-11-19T05:52:47;100778.56;;;11.40;98.55
48267;BME280;34088;52.232;5.196;2023-11-19T05:55:13;100779.41;;;11.40;98.72
48267;BME280;34088;52.232;5.196;2023-11-19T05:57:39;100776.69;;;11.43;97.64
48267;BME280;34088;52.232;5.196;2023-11-19T06:00:05;100757.78;;;11.41;97.88
48267;BME280;34088;52.232;5.196;2023-11-19T06:02:32;100766.63;;;11.36;98.12
48267;BME280;34088;52.232;5.196;2023-11-19T06:04:57;100761.66;;;11.30;97.60
48267;BME280;34088;52.232;5.196;2023-11-19T06:07:23;100769.63;;;11.25;97.93
48267;BME280;34088;52.232;5.196;2023-11-19T06:09:48;100784.31;;;11.25;98.11
48267;BME280;34088;52.232;5.196;2023-11-19T06:12:13;100784.22;;;11.28;98.09
48267;BME280;34088;52.232;5.196;2023-11-19T06:14:40;100767.94;;;11.24;97.96
48267;BME280;34088;52.232;5.196;2023-11-19T06:17:05;100775.53;;;11.29;97.85
48267;BME280;34088;52.232;5.196;2023-11-19T06:19:30;100780.94;;;11.23;98.09
48267;BME280;34088;52.232;5.196;2023-11-19T06:21:55;100779.22;;;11.23;98.15
48267;BME280;34088;52.232;5.196;2023-11-19T06:24:21;100780.19;;;11.21;98.41
48267;BME280;34088;52.232;5.196;2023-11-19T06:26:46;100782.59;;;11.25;98.13
48267;BME280;34088;52.232;5.196;2023-11-19T06:29:11;100789.50;;;11.25;97.77
48267;BME280;34088;52.232;5.196;2023-11-19T06:31:36;100786.91;;;11.25;97.96
48267;BME280;34088;52.232;5.196;2023-11-19T06:34:05;100766.50;;;11.17;98.42
48267;BME280;34088;52.232;5.196;2023-11-19T06:36:30;100776.53;;;11.25;97.95
48267;BME280;34088;52.232;5.196;2023-11-19T06:38:55;100779.09;;;11.26;97.88
48267;BME280;34088;52.232;5.196;2023-11-19T06:41:21;100786.09;;;11.24;98.45
48267;BME280;34088;52.232;5.196;2023-11-19T06:43:46;100785.84;;;11.30;97.84
48267;BME280;34088;52.232;5.196;2023-11-19T06:46:17;100792.84;;;11.28;97.83
48267;BME280;34088;52.232;5.196;2023-11-19T06:48:43;100791.03;;;11.30;97.82
48267;BME280;34088;52.232;5.196;2023-11-19T06:51:09;100784.28;;;11.26;97.88
48267;BME280;34088;52.232;5.196;2023-11-19T06:53:34;100798.63;;;11.35;97.89
48267;BME280;34088;52.232;5.196;2023-11-19T06:56:01;100792.72;;;11.31;97.34
48267;BME280;34088;52.232;5.196;2023-11-19T06:58:26;100792.03;;;11.26;97.87
48267;BME280;34088;52.232;5.196;2023-11-19T07:00:51;100801.59;;;11.26;97.80
48267;BME280;34088;52.232;5.196;2023-11-19T07:03:16;100791.38;;;11.21;98.06
48267;BME280;34088;52.232;5.196;2023-11-19T07:05:42;100804.09;;;11.27;97.77
48267;BME280;34088;52.232;5.196;2023-11-19T07:08:08;100804.31;;;11.21;97.91
48267;BME280;34088;52.232;5.196;2023-11-19T07:10:34;100806.59;;;11.30;97.63
48267;BME280;34088;52.232;5.196;2023-11-19T07:12:59;100809.81;;;11.37;97.45
48267;BME280;34088;52.232;5.196;2023-11-19T07:15:24;100804.66;;;11.35;97.17
48267;BME280;34088;52.232;5.196;2023-11-19T07:17:49;100819.25;;;11.38;97.46
48267;BME280;34088;52.232;5.196;2023-11-19T07:20:15;100818.31;;;11.40;96.98
48267;BME280;34088;52.232;5.196;2023-11-19T07:22:43;100823.47;;;11.40;97.29
48267;BME280;34088;52.232;5.196;2023-11-19T07:25:12;100820.94;;;11.39;97.34
48267;BME280;34088;52.232;5.196;2023-11-19T07:27:37;100818.16;;;11.43;96.84
48267;BME280;34088;52.232;5.196;2023-11-19T07:30:04;100824.94;;;11.47;96.98
48267;BME280;34088;52.232;5.196;2023-11-19T07:32:29;100833.53;;;11.48;96.89
48267;BME280;34088;52.232;5.196;2023-11-19T07:34:55;100822.34;;;11.47;97.11
48267;BME280;34088;52.232;5.196;2023-11-19T07:37:21;100801.41;;;11.30;97.46
48267;BME280;34088;52.232;5.196;2023-11-19T07:39:47;100832.53;;;11.52;96.90
48267;BME280;34088;52.232;5.196;2023-11-19T07:42:12;100830.66;;;11.55;96.21
48267;BME280;34088;52.232;5.196;2023-11-19T07:44:37;100828.66;;;11.63;96.08
48267;BME280;34088;52.232;5.196;2023-11-19T07:47:03;100836.44;;;11.63;95.97
48267;BME280;34088;52.232;5.196;2023-11-19T07:49:28;100821.66;;;11.65;95.68
48267;BME280;34088;52.232;5.196;2023-11-19T07:51:54;100824.25;;;11.65;95.70
48267;BME280;34088;52.232;5.196;2023-11-19T07:54:19;100833.91;;;11.62;95.43
48267;BME280;34088;52.232;5.196;2023-11-19T07:56:46;100825.94;;;11.66;95.58
48267;BME280;34088;52.232;5.196;2023-11-19T07:59:11;100824.00;;;11.71;95.40
48267;BME280;34088;52.232;5.196;2023-11-19T08:01:37;100824.00;;;11.71;95.03
48267;BME280;34088;52.232;5.196;2023-11-19T08:04:02;100817.09;;;11.72;95.41
48267;BME280;34088;52.232;5.196;2023-11-19T08:06:27;100814.31;;;11.76;95.80
48267;BME280;34088;52.232;5.196;2023-11-19T08:08:53;100813.63;;;11.71;95.50
48267;BME280;34088;52.232;5.196;2023-11-19T08:11:18;100814.34;;;11.75;95.15
48267;BME280;34088;52.232;5.196;2023-11-19T08:13:44;100807.53;;;11.72;95.32
48267;BME280;34088;52.232;5.196;2023-11-19T08:16:10;100810.84;;;11.76;94.79
48267;BME280;34088;52.232;5.196;2023-11-19T08:18:36;100818.44;;;11.80;95.82
48267;BME280;34088;52.232;5.196;2023-11-19T08:21:01;100811.47;;;11.82;95.53
48267;BME280;34088;52.232;5.196;2023-11-19T08:23:26;100812.25;;;11.84;95.89
48267;BME280;34088;52.232;5.196;2023-11-19T08:25:54;100831.00;;;11.91;95.72
48267;BME280;34088;52.232;5.196;2023-11-19T08:28:19;100833.53;;;11.92;95.78
48267;BME280;34088;52.232;5.196;2023-11-19T08:30:44;100833.41;;;11.95;96.17
48267;BME280;34088;52.232;5.196;2023-11-19T08:33:10;100841.84;;;12.00;95.24
48267;BME280;34088;52.232;5.196;2023-11-19T08:35:35;100844.66;;;11.96;95.18
48267;BME280;34088;52.232;5.196;2023-11-19T08:38:00;100838.59;;;11.95;95.14
48267;BME280;34088;52.232;5.196;2023-11-19T08:40:27;100840.75;;;12.06;95.05
48267;BME280;34088;52.232;5.196;2023-11-19T08:42:52;100837.34;;;12.05;95.16
48267;BME280;34088;52.232;5.196;2023-11-19T08:45:17;100838.03;;;12.09;94.66
48267;BME280;34088;52.232;5.196;2023-11-19T08:47:43;100848.63;;;12.04;94.36
48267;BME280;34088;52.232;5.196;2023-11-19T08:50:10;100841.72;;;12.03;94.78
48267;BME280;34088;52.232;5.196;2023-11-19T08:52:35;100839.88;;;12.07;94.45
48267;BME280;34088;52.232;5.196;2023-11-19T08:55:01;100843.44;;;12.04;94.48
48267;BME280;34088;52.232;5.196;2023-11-19T08:57:27;100845.84;;;12.09;94.88
48267;BME280;34088;52.232;5.196;2023-11-19T08:59:52;100835.31;;;12.12;93.99
48267;BME280;34088;52.232;5.196;2023-11-19T09:02:17;100835.97;;;12.17;93.27
48267;BME280;34088;52.232;5.196;2023-11-19T09:04:43;100832.41;;;12.19;94.08
48267;BME280;34088;52.232;5.196;2023-11-19T09:07:08;100831.63;;;12.17;93.43
48267;BME280;34088;52.232;5.196;2023-11-19T09:09:37;100837.19;;;12.08;93.40
48267;BME280;34088;52.232;5.196;2023-11-19T09:12:02;100835.06;;;12.18;92.92
48267;BME280;34088;52.232;5.196;2023-11-19T09:14:31;100833.25;;;12.20;94.05
48267;BME280;34088;52.232;5.196;2023-11-19T09:16:56;100836.69;;;12.20;93.94
48267;BME280;34088;52.232;5.196;2023-11-19T09:19:22;100823.72;;;12.20;93.24
48267;BME280;34088;52.232;5.196;2023-11-19T09:21:47;100828.03;;;12.21;93.34
48267;BME280;34088;52.232;5.196;2023-11-19T09:24:13;100830.38;;;12.27;92.62
48267;BME280;34088;52.232;5.196;2023-11-19T09:26:38;100825.03;;;12.30;92.37
48267;BME280;34088;52.232;5.196;2023-11-19T09:29:06;100822.47;;;12.29;93.21
48267;BME280;34088;52.232;5.196;2023-11-19T09:31:32;100814.78;;;12.27;91.82
48267;BME280;34088;52.232;5.196;2023-11-19T09:33:58;100833.41;;;12.37;92.32
48267;BME280;34088;52.232;5.196;2023-11-19T09:36:23;100837.63;;;12.39;92.42
48267;BME280;34088;52.232;5.196;2023-11-19T09:38:48;100827.25;;;12.39;91.60
48267;BME280;34088;52.232;5.196;2023-11-19T09:41:13;100832.34;;;12.41;91.79
48267;BME280;34088;52.232;5.196;2023-11-19T09:43:39;100829.75;;;12.41;92.26
48267;BME280;34088;52.232;5.196;2023-11-19T09:46:05;100824.31;;;12.47;91.83
48267;BME280;34088;52.232;5.196;2023-11-19T09:48:36;100823.53;;;12.45;91.96
48267;BME280;34088;52.232;5.196;2023-11-19T09:51:06;100823.44;;;12.48;91.39
48267;BME280;34088;52.232;5.196;2023-11-19T09:53:32;100827.66;;;12.50;91.26
48267;BME280;34088;52.232;5.196;2023-11-19T09:56:00;100800.16;;;12.45;90.90
48267;BME280;34088;52.232;5.196;2023-11-19T09:58:27;100822.38;;;12.52;91.11
48267;BME280;34088;52.232;5.196;2023-11-19T10:00:53;100813.88;;;12.48;91.30
48267;BME280;34088;52.232;5.196;2023-11-19T10:03:18;100808.66;;;12.48;91.57
48267;BME280;34088;52.232;5.196;2023-11-19T10:05:43;100819.66;;;12.55;91.35
48267;BME280;34088;52.232;5.196;2023-11-19T10:08:09;100808.41;;;12.54;91.52
48267;BME280;34088;52.232;5.196;2023-11-19T10:10:36;100790.75;;;12.42;91.38
48267;BME280;34088;52.232;5.196;2023-11-19T10:13:01;100807.31;;;12.60;90.81
48267;BME280;34088;52.232;5.196;2023-11-19T10:15:26;100805.53;;;12.60;91.81
48267;BME280;34088;52.232;5.196;2023-11-19T10:17:52;100808.94;;;12.62;91.17
48267;BME280;34088;52.232;5.196;2023-11-19T10:20:19;100806.25;;;12.64;91.10
48267;BME280;34088;52.232;5.196;2023-11-19T10:22:45;100813.66;;;12.73;91.93
48267;BME280;34088;52.232;5.196;2023-11-19T10:25:27;100818.97;;;12.70;91.44
48267;BME280;34088;52.232;5.196;2023-11-19T10:27:54;100813.06;;;12.66;90.96
48267;BME280;34088;52.232;5.196;2023-11-19T10:30:27;100812.97;;;12.69;91.37
48267;BME280;34088;52.232;5.196;2023-11-19T10:33:03;100813.25;;;12.82;90.77
48267;BME280;34088;52.232;5.196;2023-11-19T10:35:30;100795.69;;;12.87;90.96
48267;BME280;34088;52.232;5.196;2023-11-19T10:37:56;100813.81;;;12.88;89.98
48267;BME280;34088;52.232;5.196;2023-11-19T10:40:37;100801.44;;;12.75;90.66
48267;BME280;34088;52.232;5.196;2023-11-19T10:43:03;100812.22;;;12.86;91.02
48267;BME280;34088;52.232;5.196;2023-11-19T10:45:28;100801.66;;;12.70;91.63
48267;BME280;34088;52.232;5.196;2023-11-19T10:47:54;100817.72;;;12.78;91.92
48267;BME280;34088;52.232;5.196;2023-11-19T10:50:19;100803.84;;;12.79;92.37
48267;BME280;34088;52.232;5.196;2023-11-19T10:52:45;100812.69;;;12.75;92.37
48267;BME280;34088;52.232;5.196;2023-11-19T10:55:11;100802.03;;;12.81;92.30
48267;BME280;34088;52.232;5.196;2023-11-19T10:57:43;100809.88;;;12.80;91.87
48267;BME280;34088;52.232;5.196;2023-11-19T11:00:13;100804.63;;;12.81;91.54
48267;BME280;34088;52.232;5.196;2023-11-19T11:02:45;100817.34;;;12.87;91.60
48267;BME280;34088;52.232;5.196;2023-11-19T11:05:14;100806.03;;;12.88;91.05
48267;BME280;34088;52.232;5.196;2023-11-19T11:07:43;100800.31;;;13.00;90.48
48267;BME280;34088;52.232;5.196;2023-11-19T11:10:09;100808.00;;;13.03;90.08
48267;BME280;34088;52.232;5.196;2023-11-19T11:12:37;100789.16;;;12.98;88.81
48267;BME280;34088;52.232;5.196;2023-11-19T11:15:07;100806.63;;;13.13;87.46
48267;BME280;34088;52.232;5.196;2023-11-19T11:17:33;100803.41;;;13.08;87.61
48267;BME280;34088;52.232;5.196;2023-11-19T11:19:59;100798.72;;;13.16;86.82
48267;BME280;34088;52.232;5.196;2023-11-19T11:22:25;100801.03;;;13.22;86.29
48267;BME280;34088;52.232;5.196;2023-11-19T11:31:03;100795.78;;;13.24;85.39
48267;BME280;34088;52.232;5.196;2023-11-19T11:36:00;100791.28;;;13.27;84.94
48267;BME280;34088;52.232;5.196;2023-11-19T11:38:30;100791.91;;;13.32;84.26
48267;BME280;34088;52.232;5.196;2023-11-19T11:41:21;100795.97;;;13.38;83.98
48267;BME280;34088;52.232;5.196;2023-11-19T11:43:48;100788.09;;;13.39;83.93
48267;BME280;34088;52.232;5.196;2023-11-19T11:49:07;100783.19;;;13.33;83.60
48267;BME280;34088;52.232;5.196;2023-11-19T11:54:08;100785.84;;;13.32;82.89
48267;BME280;34088;52.232;5.196;2023-11-19T11:56:33;100780.53;;;13.35;82.83
48267;BME280;34088;52.232;5.196;2023-11-19T11:59:01;100775.16;;;13.38;83.97
48267;BME280;34088;52.232;5.196;2023-11-19T12:01:27;100774.19;;;13.40;83.86
48267;BME280;34088;52.232;5.196;2023-11-19T12:03:55;100769.03;;;13.39;83.30
48267;BME280;34088;52.232;5.196;2023-11-19T12:06:22;100772.56;;;13.38;84.89
48267;BME280;34088;52.232;5.196;2023-11-19T12:08:47;100770.53;;;13.44;84.60
48267;BME280;34088;52.232;5.196;2023-11-19T12:11:12;100765.34;;;13.44;84.60
48267;BME280;34088;52.232;5.196;2023-11-19T12:13:47;100759.34;;;13.42;85.53
48267;BME280;34088;52.232;5.196;2023-11-19T12:16:17;100751.63;;;13.41;85.87
48267;BME280;34088;52.232;5.196;2023-11-19T12:18:42;100767.06;;;13.44;85.88
48267;BME280;34088;52.232;5.196;2023-11-19T12:21:08;100764.53;;;13.42;86.21
48267;BME280;34088;52.232;5.196;2023-11-19T12:23:44;100764.69;;;13.39;86.71
48267;BME280;34088;52.232;5.196;2023-11-19T12:26:21;100766.78;;;13.31;86.94
48267;BME280;34088;52.232;5.196;2023-11-19T12:28:57;100768.13;;;13.40;87.33
48267;BME280;34088;52.232;5.196;2023-11-19T12:31:23;100766.38;;;13.40;87.42
48267;BME280;34088;52.232;5.196;2023-11-19T12:33:51;100761.94;;;13.42;87.92
48267;BME280;34088;52.232;5.196;2023-11-19T12:36:17;100759.91;;;13.30;86.73
48267;BME280;34088;52.232;5.196;2023-11-19T12:38:42;100769.91;;;13.39;86.50
48267;BME280;34088;52.232;5.196;2023-11-19T12:41:10;100770.03;;;13.36;86.04
48267;BME280;34088;52.232;5.196;2023-11-19T12:43:36;100777.19;;;13.31;85.28
48267;BME280;34088;52.232;5.196;2023-11-19T12:46:11;100782.22;;;13.36;84.70
48267;BME280;34088;52.232;5.196;2023-11-19T12:48:41;100781.63;;;13.29;85.00
48267;BME280;34088;52.232;5.196;2023-11-19T12:51:06;100778.13;;;13.30;84.44
48267;BME280;34088;52.232;5.196;2023-11-19T12:53:47;100769.84;;;13.22;83.19
48267;BME280;34088;52.232;5.196;2023-11-19T12:56:14;100757.66;;;13.23;83.45
48267;BME280;34088;52.232;5.196;2023-11-19T12:58:39;100775.38;;;13.33;82.20
48267;BME280;34088;52.232;5.196;2023-11-19T13:01:06;100759.78;;;13.33;81.87
48267;BME280;34088;52.232;5.196;2023-11-19T13:03:33;100765.69;;;13.37;80.11
48267;BME280;34088;52.232;5.196;2023-11-19T13:06:06;100752.56;;;13.21;81.02
48267;BME280;34088;52.232;5.196;2023-11-19T13:08:46;100766.97;;;13.28;79.63
48267;BME280;34088;52.232;5.196;2023-11-19T13:11:13;100757.47;;;13.27;79.90
48267;BME280;34088;52.232;5.196;2023-11-19T13:16:20;100766.13;;;13.09;84.69
48267;BME280;34088;52.232;5.196;2023-11-19T13:18:45;100776.22;;;12.97;86.86
48267;BME280;34088;52.232;5.196;2023-11-19T13:21:10;100769.44;;;12.93;87.49
48267;BME280;34088;52.232;5.196;2023-11-19T13:23:35;100780.81;;;12.90;88.31
48267;BME280;34088;52.232;5.196;2023-11-19T13:26:01;100772.53;;;12.82;89.58
48267;BME280;34088;52.232;5.196;2023-11-19T13:28:26;100775.84;;;12.86;89.34
48267;BME280;34088;52.232;5.196;2023-11-19T13:30:52;100766.97;;;12.71;89.70
48267;BME280;34088;52.232;5.196;2023-11-19T13:33:18;100763.38;;;12.74;90.36
48267;BME280;34088;52.232;5.196;2023-11-19T13:35:44;100754.91;;;12.70;90.45
48267;BME280;34088;52.232;5.196;2023-11-19T13:38:09;100760.72;;;12.75;90.28
48267;BME280;34088;52.232;5.196;2023-11-19T13:40:34;100755.00;;;12.67;90.64
48267;BME280;34088;52.232;5.196;2023-11-19T13:43:00;100762.03;;;12.65;91.22
48267;BME280;34088;52.232;5.196;2023-11-19T13:45:25;100752.25;;;12.52;92.21
48267;BME280;34088;52.232;5.196;2023-11-19T13:47:50;100754.53;;;12.59;92.63